Time;durP1;ratioP1;P1;durP2;ratioP2;P2;SDS_P1;SDS_P2;PMS_P1;PMS_P2;Temp;Humidity;BMP_temperature;BMP_pressure;BME280_temperature;BME280_humidity;BME280_pressure;Samples;Min_cycle;Max_cycle;Signal;HPM_P1;HPM_P2
2022/04/21 00:01:23;;;;;;;18.23;11.20;;;11.50;99.90;;;;;;5050303;28;20459;-75
2022/04/21 00:03:49;;;;;;;16.98;11.10;;;11.40;99.90;;;;;;5050604;28;20025;-74
2022/04/21 00:06:16;;;;;;;15.38;10.70;;;11.40;99.90;;;;;;5050263;28;20017;-74
2022/04/21 00:08:42;;;;;;;16.60;10.55;;;11.40;99.90;;;;;;5050424;28;20017;-75
2022/04/21 00:11:07;;;;;;;15.13;10.25;;;11.40;99.90;;;;;;5050495;28;20071;-74
2022/04/21 00:13:34;;;;;;;15.98;10.68;;;11.40;99.90;;;;;;5049873;28;20384;-74
2022/04/21 00:15:59;;;;;;;16.60;11.15;;;11.40;99.90;;;;;;5050273;28;20033;-74
2022/04/21 00:18:25;;;;;;;16.42;10.45;;;11.30;99.90;;;;;;5050227;28;20446;-74
2022/04/21 00:20:51;;;;;;;17.60;10.98;;;11.30;99.90;;;;;;5050068;28;20036;-75
2022/04/21 00:23:29;;;;;;;16.58;10.65;;;11.30;99.90;;;;;;5050451;28;20021;-75
2022/04/21 00:26:00;;;;;;;14.65;10.05;;;11.30;99.90;;;;;;5050269;28;20119;-74
2022/04/21 00:28:28;;;;;;;17.35;10.95;;;11.20;99.90;;;;;;5049889;28;20029;-74
2022/04/21 00:30:54;;;;;;;16.33;10.70;;;11.20;99.90;;;;;;5052289;28;20025;-74
2022/04/21 00:33:19;;;;;;;17.83;10.82;;;11.20;99.90;;;;;;5053740;28;20025;-74
2022/04/21 00:35:45;;;;;;;18.42;11.13;;;11.10;99.90;;;;;;5053564;28;20025;-74
2022/04/21 00:38:10;;;;;;;18.08;12.00;;;11.10;99.90;;;;;;5053930;28;20029;-75
2022/04/21 00:40:36;;;;;;;18.67;11.23;;;11.10;99.90;;;;;;5053390;28;20104;-74
2022/04/21 00:43:02;;;;;;;16.75;11.18;;;11.10;99.90;;;;;;5068466;28;20020;-74
2022/04/21 00:45:29;;;;;;;18.52;11.25;;;11.00;99.90;;;;;;5073511;28;20020;-74
2022/04/21 00:47:56;;;;;;;21.13;12.15;;;11.00;99.90;;;;;;5073691;28;20012;-74
2022/04/21 00:50:28;;;;;;;16.90;10.88;;;11.00;99.90;;;;;;5073459;28;20031;-74
2022/04/21 00:52:55;;;;;;;16.73;11.48;;;11.00;99.90;;;;;;5073225;28;20025;-74
2022/04/21 00:55:21;;;;;;;17.40;11.45;;;10.90;99.90;;;;;;5073352;28;20025;-74
2022/04/21 00:57:48;;;;;;;18.05;11.52;;;10.90;99.90;;;;;;5073403;28;20060;-74
2022/04/21 01:00:15;;;;;;;19.30;11.70;;;10.90;99.90;;;;;;5074262;28;20043;-73
2022/04/21 01:02:49;;;;;;;17.60;11.52;;;10.90;99.90;;;;;;5078023;28;20040;-74
2022/04/21 01:05:30;;;;;;;15.30;10.85;;;10.80;99.90;;;;;;5076935;28;20075;-74
2022/04/21 01:08:08;;;;;;;15.27;10.32;;;10.80;99.90;;;;;;5073448;28;20025;-74
2022/04/21 01:10:35;;;;;;;15.38;11.40;;;10.80;99.90;;;;;;5073383;28;20054;-74
2022/04/21 01:13:05;;;;;;;17.95;10.80;;;10.80;99.90;;;;;;5072799;28;20024;-74
2022/04/21 01:15:31;;;;;;;19.20;10.68;;;10.80;99.90;;;;;;5073238;28;20034;-75
2022/04/21 01:17:57;;;;;;;19.02;10.73;;;10.70;99.90;;;;;;5072471;28;20028;-74
2022/04/21 01:20:24;;;;;;;14.13;9.88;;;10.70;99.90;;;;;;5073200;28;20020;-74
2022/04/21 01:22:50;;;;;;;15.93;10.63;;;10.70;99.90;;;;;;5072655;28;20029;-73
2022/04/21 01:25:16;;;;;;;19.17;11.55;;;10.60;99.90;;;;;;5072726;28;20038;-74
2022/04/21 01:27:43;;;;;;;20.13;11.75;;;10.60;99.90;;;;;;5073022;28;20017;-73
2022/04/21 01:30:11;;;;;;;18.52;11.40;;;10.60;99.90;;;;;;5072911;28;20021;-74
2022/04/21 01:32:37;;;;;;;16.85;11.70;;;10.60;99.90;;;;;;5072252;28;20020;-74
2022/04/21 01:35:08;;;;;;;19.55;11.35;;;10.60;99.90;;;;;;5072829;28;20036;-73
2022/04/21 01:43:04;;;;;;;17.15;11.68;;;10.50;99.90;;;;;;5072593;28;20082;-74
2022/04/21 01:45:30;;;;;;;20.75;11.35;;;10.40;99.90;;;;;;5072503;28;20431;-74
2022/04/21 01:47:56;;;;;;;17.20;10.95;;;10.30;99.90;;;;;;5072495;28;20033;-73
2022/04/21 01:50:23;;;;;;;17.38;11.38;;;10.30;99.90;;;;;;5072338;28;20028;-73
2022/04/21 01:52:48;;;;;;;16.23;10.55;;;10.30;99.90;;;;;;5054023;28;20445;-74
2022/04/21 01:55:14;;;;;;;16.75;10.73;;;10.30;99.90;;;;;;5072185;28;20033;-74
2022/04/21 01:57:40;;;;;;;20.05;11.63;;;10.30;99.90;;;;;;5071845;28;20024;-74
2022/04/21 02:00:06;;;;;;;14.40;10.23;;;10.30;99.90;;;;;;5072238;28;20016;-74
2022/04/21 02:02:32;;;;;;;16.08;10.73;;;10.30;99.90;;;;;;5071959;28;20109;-74
2022/04/21 02:04:59;;;;;;;17.50;10.63;;;10.20;99.90;;;;;;5072041;28;20463;-74
2022/04/21 02:07:25;;;;;;;18.38;11.18;;;10.20;99.90;;;;;;5072277;28;20025;-75
2022/04/21 02:09:50;;;;;;;21.75;10.98;;;10.20;99.90;;;;;;5071939;28;20022;-74
2022/04/21 02:12:16;;;;;;;17.98;11.13;;;10.20;99.90;;;;;;5071458;28;20043;-74
2022/04/21 02:14:42;;;;;;;19.20;10.77;;;10.10;99.90;;;;;;5071729;28;20480;-73
2022/04/21 02:17:08;;;;;;;17.55;10.48;;;10.10;99.90;;;;;;5071721;28;20020;-74
2022/04/21 02:19:33;;;;;;;21.55;10.63;;;10.10;99.90;;;;;;5071549;28;20377;-74
2022/04/21 02:21:59;;;;;;;18.02;10.35;;;10.10;99.90;;;;;;5053739;28;20035;-74
2022/04/21 02:24:25;;;;;;;16.45;10.48;;;10.10;99.90;;;;;;5071680;28;20025;-75
2022/04/21 02:26:51;;;;;;;15.63;10.20;;;10.10;99.90;;;;;;5071599;28;20024;-75
2022/04/21 02:29:16;;;;;;;16.80;9.98;;;10.10;99.90;;;;;;5071480;28;20089;-74
2022/04/21 02:31:42;;;;;;;17.15;9.88;;;10.00;99.90;;;;;;5071480;28;20021;-74
2022/04/21 02:34:07;;;;;;;14.98;9.98;;;10.00;99.90;;;;;;5071334;28;20039;-75
2022/04/21 02:36:33;;;;;;;16.40;10.77;;;10.00;99.90;;;;;;5071439;28;20107;-74
2022/04/21 02:38:58;;;;;;;17.88;10.60;;;10.00;99.90;;;;;;5053417;28;20041;-74
2022/04/21 02:41:24;;;;;;;18.73;11.10;;;10.00;99.90;;;;;;5055699;28;20092;-74
2022/04/21 02:43:49;;;;;;;17.77;11.27;;;10.00;99.90;;;;;;5071238;28;20028;-73
2022/04/21 02:46:16;;;;;;;16.70;10.88;;;9.90;99.90;;;;;;5071302;28;20060;-75
2022/04/21 02:48:41;;;;;;;17.02;11.35;;;9.90;99.90;;;;;;5071792;28;20569;-74
2022/04/21 02:51:09;;;;;;;16.75;11.05;;;9.90;99.90;;;;;;5071144;28;20029;-74
2022/04/21 02:59:03;;;;;;;20.98;12.10;;;9.90;99.90;;;;;;5071000;28;20059;-75
2022/04/21 03:01:28;;;;;;;17.70;10.77;;;9.90;99.90;;;;;;5068322;28;20449;-74
2022/04/21 03:03:56;;;;;;;16.80;10.68;;;9.80;99.90;;;;;;5068767;28;20025;-75
2022/04/21 03:06:22;;;;;;;19.55;11.52;;;9.80;99.90;;;;;;5070605;28;20089;-75
2022/04/21 03:08:48;;;;;;;18.15;10.77;;;9.80;99.90;;;;;;5070844;28;20111;-74
2022/04/21 03:11:13;;;;;;;19.23;10.63;;;9.70;99.90;;;;;;5070499;28;20039;-74
2022/04/21 03:13:39;;;;;;;14.18;10.27;;;9.70;99.90;;;;;;5069965;28;20064;-74
2022/04/21 03:16:04;;;;;;;19.08;10.40;;;9.80;99.90;;;;;;5070433;28;20063;-74
2022/04/21 03:18:30;;;;;;;17.83;10.23;;;9.70;99.90;;;;;;5052196;28;20517;-74
2022/04/21 03:26:24;;;;;;;17.40;10.07;;;9.60;99.90;;;;;;5070752;28;20085;-74
2022/04/21 03:28:50;;;;;;;18.40;10.48;;;9.60;99.90;;;;;;5052358;28;20477;-75
2022/04/21 03:31:15;;;;;;;17.02;9.65;;;9.60;99.90;;;;;;5070278;28;20074;-73
2022/04/21 03:33:41;;;;;;;14.23;9.95;;;9.60;99.90;;;;;;5069813;28;20028;-74
2022/04/21 03:36:07;;;;;;;14.52;9.15;;;9.60;99.90;;;;;;5070415;28;20560;-73
2022/04/21 03:38:32;;;;;;;18.52;9.85;;;9.60;99.90;;;;;;5052382;28;20115;-74
2022/04/21 03:40:58;;;;;;;15.00;9.50;;;9.50;99.90;;;;;;5070496;28;20025;-75
2022/04/21 03:43:24;;;;;;;15.63;10.63;;;9.50;99.90;;;;;;5070532;28;20033;-74
2022/04/21 03:45:49;;;;;;;14.50;9.48;;;9.50;99.90;;;;;;5070028;28;20043;-73
2022/04/21 03:48:16;;;;;;;13.75;9.65;;;9.50;99.90;;;;;;5070138;28;20112;-74
2022/04/21 03:50:41;;;;;;;17.17;10.23;;;9.50;99.90;;;;;;5070768;28;20028;-74
2022/04/21 03:53:08;;;;;;;15.68;9.90;;;9.50;99.90;;;;;;5070496;28;20028;-74
2022/04/21 03:55:34;;;;;;;15.30;10.05;;;9.50;99.90;;;;;;5070355;28;20037;-73
2022/04/21 03:57:59;;;;;;;15.02;9.98;;;9.40;99.90;;;;;;5052309;28;20039;-74
2022/04/21 04:00:25;;;;;;;15.93;10.02;;;9.40;99.90;;;;;;5069964;28;20029;-75
2022/04/21 04:02:51;;;;;;;17.67;10.10;;;9.40;99.90;;;;;;5070007;28;20037;-74
2022/04/21 04:05:16;;;;;;;14.85;9.75;;;9.40;99.90;;;;;;5072480;28;20013;-74
2022/04/21 04:13:10;;;;;;;14.32;9.75;;;9.30;99.90;;;;;;5071591;28;20089;-73
2022/04/21 04:15:36;;;;;;;16.45;9.30;;;9.30;99.90;;;;;;5073005;28;20028;-74
2022/04/21 04:18:01;;;;;;;14.05;9.75;;;9.30;99.90;;;;;;5073082;28;20043;-72
2022/04/21 04:20:27;;;;;;;15.50;9.50;;;9.30;99.90;;;;;;5055757;28;20361;-75
2022/04/21 04:22:52;;;;;;;13.52;9.40;;;9.30;99.90;;;;;;5071663;28;20100;-74
2022/04/21 04:25:18;;;;;;;17.63;10.07;;;9.30;99.90;;;;;;5072899;28;20025;-73
2022/04/21 04:27:43;;;;;;;15.85;9.85;;;9.30;99.90;;;;;;5073154;28;20017;-73
2022/04/21 04:30:09;;;;;;;17.58;9.60;;;9.30;99.90;;;;;;5073771;28;20108;-74
2022/04/21 04:32:36;;;;;;;18.40;9.55;;;9.30;99.90;;;;;;5073786;28;20438;-73
2022/04/21 04:35:02;;;;;;;13.90;9.20;;;9.30;99.90;;;;;;5073157;28;20039;-74
2022/04/21 04:37:27;;;;;;;16.88;10.23;;;9.30;99.90;;;;;;5072612;28;20103;-75
2022/04/21 04:39:55;;;;;;;17.90;10.02;;;9.30;99.90;;;;;;5072868;28;20020;-73
2022/04/21 04:42:22;;;;;;;15.85;10.00;;;9.30;99.90;;;;;;5054493;28;20109;-74
2022/04/21 04:46:34;;;;;;;17.33;10.30;;;9.20;99.90;;;;;;5071603;28;20443;-74
2022/04/21 04:47:37;;;;;;;15.15;9.75;;;9.30;99.90;;;;;;5065234;28;20044;-73
2022/04/21 04:50:03;;;;;;;15.50;10.07;;;9.30;99.90;;;;;;5068134;28;20412;-73
2022/04/21 04:52:28;;;;;;;16.00;10.32;;;9.20;99.90;;;;;;5067211;28;20042;-74
2022/04/21 04:54:54;;;;;;;16.38;10.23;;;9.20;99.90;;;;;;5070054;28;20415;-73
2022/04/21 04:57:19;;;;;;;16.80;10.90;;;9.30;99.90;;;;;;5073243;28;20369;-73
2022/04/21 04:59:45;;;;;;;17.10;10.63;;;9.30;99.90;;;;;;5067166;28;20031;-73
2022/04/21 05:02:10;;;;;;;18.52;10.15;;;9.30;99.90;;;;;;5064995;28;20123;-75
2022/04/21 05:04:36;;;;;;;17.75;10.50;;;9.30;99.90;;;;;;5064115;28;20021;-75
2022/04/21 05:07:02;;;;;;;18.00;10.70;;;9.30;99.90;;;;;;5067981;28;20074;-77
2022/04/21 05:09:28;;;;;;;21.13;11.00;;;9.30;99.90;;;;;;5066582;28;20376;-76
2022/04/21 05:11:55;;;;;;;17.02;10.52;;;9.30;99.90;;;;;;5066686;28;20071;-75
2022/04/21 05:14:22;;;;;;;18.98;11.10;;;9.30;99.90;;;;;;5069269;28;20584;-76
2022/04/21 05:16:48;;;;;;;16.88;10.13;;;9.30;99.90;;;;;;5063917;28;20072;-76
2022/04/21 05:19:16;;;;;;;17.48;11.00;;;9.30;99.90;;;;;;5059260;28;20048;-79
2022/04/21 05:21:42;;;;;;;20.52;11.02;;;9.30;99.90;;;;;;5061542;28;20142;-77
2022/04/21 05:24:13;;;;;;;20.40;10.50;;;9.30;99.90;;;;;;5063143;28;20053;-75
2022/04/21 05:26:42;;;;;;;16.40;10.25;;;9.40;99.90;;;;;;5062808;28;20063;-76
2022/04/21 05:32:01;;;;;;;14.98;10.00;;;9.40;99.90;;;;;;5060775;28;20055;-75
2022/04/21 05:34:28;;;;;;;17.75;10.07;;;9.40;99.90;;;;;;5050059;28;20512;-75
2022/04/21 05:36:55;;;;;;;15.40;10.90;;;9.40;99.90;;;;;;5072362;28;20111;-75
2022/04/21 05:39:21;;;;;;;18.50;10.55;;;9.40;99.90;;;;;;5067346;28;20043;-76
2022/04/21 05:41:48;;;;;;;15.85;9.98;;;9.40;99.90;;;;;;5069021;28;20351;-76
2022/04/21 05:44:14;;;;;;;18.45;10.60;;;9.50;99.90;;;;;;5068647;28;20074;-76
2022/04/21 05:46:40;;;;;;;16.95;10.98;;;9.50;99.90;;;;;;5070341;28;20028;-74
2022/04/21 05:49:06;;;;;;;15.68;10.35;;;9.50;99.90;;;;;;5071640;28;20078;-74
2022/04/21 05:51:31;;;;;;;15.70;10.25;;;9.50;99.90;;;;;;5072448;28;20021;-75
2022/04/21 05:53:58;;;;;;;13.52;9.50;;;9.60;99.90;;;;;;5072523;28;20024;-76
2022/04/21 05:56:24;;;;;;;14.93;9.95;;;9.60;99.90;;;;;;5072853;28;20032;-76
2022/04/21 05:58:51;;;;;;;15.50;10.13;;;9.60;99.90;;;;;;5055248;28;20029;-74
2022/04/21 06:01:16;;;;;;;16.38;10.15;;;9.70;99.90;;;;;;5072266;28;20250;-75
2022/04/21 06:03:42;;;;;;;20.30;10.98;;;9.70;99.90;;;;;;5072585;28;20533;-75
2022/04/21 06:06:09;;;;;;;19.25;10.38;;;9.70;99.90;;;;;;5072560;28;20017;-75
2022/04/21 06:08:35;;;;;;;17.63;10.27;;;9.70;99.90;;;;;;5063654;28;20468;-75
2022/04/21 06:11:01;;;;;;;21.83;10.70;;;9.80;99.90;;;;;;5058428;28;20086;-76
2022/04/21 06:13:27;;;;;;;22.08;10.10;;;9.80;99.90;;;;;;5063206;28;20020;-75
2022/04/21 06:15:54;;;;;;;18.98;10.45;;;9.80;99.90;;;;;;5072667;28;20033;-74
2022/04/21 06:18:19;;;;;;;18.73;9.73;;;9.90;99.90;;;;;;5072207;28;20122;-76
2022/04/21 06:20:46;;;;;;;15.27;9.93;;;9.90;99.90;;;;;;5054036;28;20028;-75
2022/04/21 06:23:13;;;;;;;16.98;9.27;;;9.90;99.90;;;;;;5071599;28;20028;-74
2022/04/21 06:25:38;;;;;;;15.90;10.15;;;10.00;99.90;;;;;;5072337;28;20103;-75
2022/04/21 06:28:04;;;;;;;17.92;9.40;;;10.10;99.90;;;;;;5071529;28;20100;-76
2022/04/21 06:30:31;;;;;;;15.63;9.50;;;10.10;99.90;;;;;;5051568;28;20036;-77
2022/04/21 06:32:58;;;;;;;17.05;9.57;;;10.20;99.90;;;;;;5063568;28;20472;-76
2022/04/21 06:35:25;;;;;;;18.42;9.43;;;10.20;99.90;;;;;;5053143;28;20492;-75
2022/04/21 06:37:51;;;;;;;15.82;9.43;;;10.30;99.90;;;;;;5071388;28;20024;-76
2022/04/21 06:40:16;;;;;;;15.13;9.25;;;10.40;99.90;;;;;;5065950;28;20013;-74
2022/04/21 06:42:42;;;;;;;15.73;9.52;;;10.40;99.90;;;;;;5072448;28;20024;-75
2022/04/21 06:48:01;;;;;;;13.88;8.65;;;10.60;99.90;;;;;;5057867;28;20540;-76
2022/04/21 06:50:30;;;;;;;15.97;8.83;;;10.60;99.90;;;;;;5056810;28;20029;-75
2022/04/21 06:52:56;;;;;;;14.50;8.43;;;10.70;99.90;;;;;;5055111;28;20024;-75
2022/04/21 06:55:21;;;;;;;11.85;7.93;;;10.80;99.90;;;;;;5054960;28;20181;-75
2022/04/21 06:57:47;;;;;;;17.00;8.13;;;10.80;99.90;;;;;;5036885;28;20433;-75
2022/04/21 07:00:13;;;;;;;13.80;8.30;;;10.90;99.90;;;;;;5060864;28;20017;-75
2022/04/21 07:02:41;;;;;;;18.63;8.63;;;10.90;99.90;;;;;;5068383;28;20032;-75
2022/04/21 07:05:09;;;;;;;14.82;8.55;;;11.00;99.90;;;;;;5069460;28;20120;-75
2022/04/21 07:07:34;;;;;;;15.82;8.68;;;11.00;99.90;;;;;;5044784;28;20035;-75
2022/04/21 07:10:01;;;;;;;13.00;8.40;;;11.10;99.90;;;;;;5063478;28;20025;-74
2022/04/21 07:12:30;;;;;;;14.95;8.70;;;11.10;99.90;;;;;;5063408;28;20033;-75
2022/04/21 07:15:00;;;;;;;12.70;8.40;;;11.20;99.90;;;;;;5062224;28;20033;-75
2022/04/21 07:17:26;;;;;;;13.52;8.32;;;11.20;99.90;;;;;;5041358;28;20082;-74
2022/04/21 07:19:52;;;;;;;16.65;9.02;;;11.30;99.90;;;;;;5066073;28;20044;-74
2022/04/21 07:22:24;;;;;;;12.52;8.40;;;11.40;99.90;;;;;;5063569;28;20033;-74
2022/04/21 07:24:53;;;;;;;12.82;7.78;;;11.50;99.90;;;;;;5041917;28;20031;-76
2022/04/21 07:27:19;;;;;;;16.73;8.82;;;11.60;99.90;;;;;;5059048;28;20025;-76
2022/04/21 07:29:44;;;;;;;14.88;8.05;;;11.70;99.90;;;;;;5056198;28;20040;-75
2022/04/21 07:32:10;;;;;;;15.60;8.60;;;11.80;99.90;;;;;;5064221;28;20020;-76
2022/04/21 07:34:36;;;;;;;13.43;8.02;;;11.90;99.90;;;;;;5064655;28;20440;-76
2022/04/21 07:37:03;;;;;;;14.10;8.57;;;12.00;99.90;;;;;;5060028;28;20029;-75
2022/04/21 07:39:28;;;;;;;11.82;7.78;;;12.10;99.90;;;;;;5042785;28;20060;-76
2022/04/21 07:41:56;;;;;;;15.07;7.70;;;12.20;99.90;;;;;;5059955;28;20040;-76
2022/04/21 07:44:22;;;;;;;12.48;7.50;;;12.40;99.90;;;;;;5068525;28;20381;-76
2022/04/21 07:46:48;;;;;;;11.20;8.07;;;12.50;99.90;;;;;;5074199;28;20074;-77
2022/04/21 07:53:12;;;;;;;11.18;7.03;;;12.80;99.90;;;;;;5066800;28;20046;-75
2022/04/21 07:54:43;;;;;;;11.27;6.85;;;12.90;99.90;;;;;;5062835;28;20061;-76
2022/04/21 07:57:10;;;;;;;11.70;6.38;;;13.10;99.90;;;;;;5052951;28;20040;-76
2022/04/21 07:59:36;;;;;;;12.60;6.90;;;13.30;99.90;;;;;;5065076;28;20028;-76
2022/04/21 08:02:03;;;;;;;10.60;6.82;;;13.40;99.90;;;;;;5067912;28;20100;-76
2022/04/21 08:04:30;;;;;;;11.73;6.70;;;13.60;99.90;;;;;;5041788;28;20021;-77
2022/04/21 08:06:57;;;;;;;8.75;6.70;;;13.80;99.90;;;;;;5067906;28;20056;-75
2022/04/21 08:09:23;;;;;;;10.57;6.30;;;13.90;99.90;;;;;;5074268;28;20024;-77
2022/04/21 08:11:48;;;;;;;14.00;6.22;;;14.10;99.90;;;;;;5077690;28;20028;-76
2022/04/21 08:14:16;;;;;;;9.13;6.13;;;14.20;99.90;;;;;;5077295;28;20139;-73
2022/04/21 08:16:42;;;;;;;7.93;6.10;;;14.30;99.90;;;;;;5076850;28;20411;-72
2022/04/21 08:19:08;;;;;;;8.30;5.75;;;14.40;99.90;;;;;;5055108;28;20542;-72
2022/04/21 08:21:34;;;;;;;9.15;6.20;;;14.50;99.90;;;;;;5057156;28;20021;-72
2022/04/21 08:32:33;;;;;;;11.48;6.88;;;14.60;99.60;;;;;;5051104;28;20051;-75
2022/04/21 08:34:58;;;;;;;8.52;5.38;;;15.30;98.40;;;;;;5052479;28;20040;-75
2022/04/21 08:37:23;;;;;;;11.30;6.63;;;15.40;97.60;;;;;;5054690;28;20017;-76
2022/04/21 08:39:49;;;;;;;12.00;6.65;;;15.40;96.90;;;;;;5052376;28;20075;-75
2022/04/21 08:42:15;;;;;;;9.15;6.22;;;15.40;96.40;;;;;;5053784;28;20031;-75
2022/04/21 08:44:44;;;;;;;8.93;5.60;;;15.50;96.50;;;;;;5056624;28;20024;-76
2022/04/21 08:47:14;;;;;;;7.03;5.15;;;15.60;96.40;;;;;;5056905;28;20386;-75
2022/04/21 08:49:42;;;;;;;9.65;5.95;;;15.70;95.40;;;;;;5056253;28;20075;-75
2022/04/21 08:52:11;;;;;;;6.97;5.40;;;15.80;94.80;;;;;;5052121;28;20060;-79
2022/04/21 08:54:37;;;;;;;7.63;4.95;;;15.90;94.10;;;;;;5051445;28;20501;-76
2022/04/21 08:57:02;;;;;;;11.02;5.63;;;15.90;93.50;;;;;;5053987;28;20020;-76
2022/04/21 08:59:28;;;;;;;10.57;5.55;;;16.00;93.00;;;;;;5053718;28;20087;-75
2022/04/21 09:01:58;;;;;;;6.90;5.00;;;16.10;92.40;;;;;;5044649;28;20037;-77
2022/04/21 09:04:24;;;;;;;7.82;5.00;;;16.20;92.30;;;;;;5050593;28;20040;-76
2022/04/21 09:06:49;;;;;;;9.60;4.70;;;16.30;91.50;;;;;;5053485;28;20322;-75
2022/04/21 09:09:21;;;;;;;8.18;4.72;;;16.40;90.90;;;;;;5053069;28;20028;-75
2022/04/21 09:11:53;;;;;;;11.00;5.18;;;16.40;89.90;;;;;;5053419;28;20100;-75
2022/04/21 09:14:20;;;;;;;9.90;5.25;;;16.60;89.30;;;;;;5047521;28;20033;-75
2022/04/21 09:16:47;;;;;;;8.80;4.78;;;16.70;89.10;;;;;;5049443;28;20025;-75
2022/04/21 09:19:16;;;;;;;6.80;4.45;;;16.80;88.60;;;;;;5063705;28;20044;-76
2022/04/21 09:21:42;;;;;;;9.45;4.82;;;16.90;88.80;;;;;;5067488;28;20385;-76
2022/04/21 09:24:39;;;;;;;7.53;4.40;;;16.90;87.40;;;;;;5073375;28;20031;-76
2022/04/21 09:27:06;;;;;;;7.22;4.53;;;16.90;86.80;;;;;;5036701;28;20115;-76
2022/04/21 09:29:31;;;;;;;7.20;4.53;;;17.00;87.20;;;;;;5074020;28;20024;-74
2022/04/21 09:32:04;;;;;;;6.18;4.15;;;17.00;86.30;;;;;;5073436;28;20087;-76
2022/04/21 09:34:31;;;;;;;5.80;4.00;;;17.10;85.20;;;;;;5073872;28;20029;-75
2022/04/21 09:36:58;;;;;;;10.52;3.72;;;17.10;84.20;;;;;;5073875;28;20028;-75
2022/04/21 09:39:24;;;;;;;8.15;4.20;;;17.30;83.10;;;;;;5055377;28;20025;-75
2022/04/21 09:41:56;;;;;;;8.20;4.30;;;17.40;81.10;;;;;;5072764;28;20439;-75
2022/04/21 09:47:18;;;;;;;7.15;4.90;;;17.50;77.00;;;;;;5073160;28;20031;-75
2022/04/21 09:49:44;;;;;;;10.23;5.20;;;17.40;77.50;;;;;;5072802;28;20107;-75
2022/04/21 09:52:10;;;;;;;5.70;4.22;;;17.50;77.90;;;;;;5072964;28;20494;-75
2022/04/21 09:54:36;;;;;;;8.15;5.15;;;17.60;77.00;;;;;;5072649;28;20421;-76
2022/04/21 09:57:03;;;;;;;6.38;4.72;;;17.70;76.30;;;;;;5071625;28;20388;-76
2022/04/21 09:59:29;;;;;;;10.05;4.22;;;17.80;75.10;;;;;;5072301;28;20396;-75
2022/04/21 10:01:55;;;;;;;10.15;4.30;;;17.90;73.50;;;;;;5071805;28;20036;-76
2022/04/21 10:04:22;;;;;;;4.97;3.92;;;17.90;71.50;;;;;;5071087;28;20043;-77
2022/04/21 10:06:48;;;;;;;6.55;4.30;;;18.10;71.30;;;;;;5072171;28;20049;-77
2022/04/21 10:09:16;;;;;;;6.78;4.28;;;18.20;71.50;;;;;;5072104;28;20471;-77
2022/04/21 10:11:42;;;;;;;17.30;4.10;;;18.40;71.00;;;;;;5071975;28;20032;-77
2022/04/21 10:14:12;;;;;;;6.75;4.30;;;18.60;69.80;;;;;;5063004;28;20033;-78
2022/04/21 10:16:39;;;;;;;5.13;3.92;;;18.70;67.90;;;;;;5071883;28;20387;-77
2022/04/21 10:19:05;;;;;;;4.70;3.63;;;18.60;66.70;;;;;;5071979;28;20170;-76
2022/04/21 10:21:51;;;;;;;6.88;3.53;;;18.60;64.80;;;;;;5072040;28;20024;-75
2022/04/21 10:24:24;;;;;;;6.78;4.18;;;18.60;63.80;;;;;;5053234;28;20083;-76
2022/04/21 10:26:51;;;;;;;7.93;3.72;;;18.70;64.50;;;;;;5018018;28;20534;-76
2022/04/21 10:29:20;;;;;;;6.63;3.55;;;18.70;64.00;;;;;;5052169;28;20036;-75
2022/04/21 10:31:49;;;;;;;6.90;3.75;;;18.70;63.30;;;;;;5034270;28;20033;-75
2022/04/21 10:34:27;;;;;;;7.95;3.78;;;18.70;60.20;;;;;;5067335;28;20032;-75
2022/04/21 10:37:12;;;;;;;8.55;4.30;;;18.70;60.20;;;;;;5071681;28;20025;-76
2022/04/21 10:39:39;;;;;;;5.30;3.83;;;18.70;59.80;;;;;;5070098;28;20023;-76
2022/04/21 10:42:15;;;;;;;5.95;3.78;;;18.70;60.80;;;;;;5071778;28;20397;-75
2022/04/21 10:44:52;;;;;;;5.60;4.10;;;18.80;60.90;;;;;;5070171;28;20028;-76
2022/04/21 10:47:34;;;;;;;10.93;3.45;;;18.90;59.10;;;;;;5072427;28;20029;-76
2022/04/21 10:50:02;;;;;;;5.55;2.95;;;19.00;58.30;;;;;;5080747;28;20111;-76
2022/04/21 10:57:58;;;;;;;6.28;3.13;;;18.90;54.50;;;;;;5074786;28;20070;-77
2022/04/21 11:00:29;;;;;;;3.85;2.85;;;18.90;53.60;;;;;;5060179;28;20044;-78
2022/04/21 11:03:01;;;;;;;3.70;2.60;;;18.90;53.70;;;;;;5071968;28;20021;-79
2022/04/21 11:05:45;;;;;;;6.43;2.60;;;18.90;53.40;;;;;;5076017;28;20503;-76
2022/04/21 11:08:17;;;;;;;5.70;3.30;;;18.90;53.30;;;;;;5062894;28;20074;-77
2022/04/21 11:10:44;;;;;;;6.55;2.70;;;18.90;52.60;;;;;;5067090;28;20415;-76
2022/04/21 11:13:19;;;;;;;3.50;2.85;;;19.00;52.60;;;;;;5069942;28;20055;-76
2022/04/21 11:15:45;;;;;;;4.95;2.90;;;19.10;52.80;;;;;;5070173;28;20107;-76
2022/04/21 11:18:12;;;;;;;6.10;3.17;;;19.20;52.50;;;;;;5067273;28;20020;-77
2022/04/21 11:21:17;;;;;;;4.20;2.92;;;19.30;52.60;;;;;;5067045;28;20029;-77
2022/04/21 11:23:45;;;;;;;4.60;3.22;;;19.50;51.60;;;;;;5064200;28;20594;-77
2022/04/21 11:26:12;;;;;;;3.20;2.70;;;19.40;51.30;;;;;;5070972;28;20272;-76
2022/04/21 11:28:42;;;;;;;7.95;2.80;;;19.40;51.50;;;;;;5053450;28;20031;-75
2022/04/21 11:31:08;;;;;;;4.10;2.30;;;19.50;51.40;;;;;;5071911;28;20036;-75
2022/04/21 11:33:35;;;;;;;3.63;2.58;;;19.50;51.30;;;;;;5071695;28;20075;-77
2022/04/21 11:36:06;;;;;;;3.97;2.33;;;19.60;51.10;;;;;;5069903;28;20020;-77
2022/04/21 11:38:41;;;;;;;4.78;2.25;;;19.60;48.90;;;;;;5053571;28;20025;-76
2022/04/21 11:41:08;;;;;;;2.10;1.90;;;19.50;48.70;;;;;;5076005;28;20385;-80
2022/04/21 11:43:38;;;;;;;5.13;2.08;;;19.60;48.60;;;;;;5078844;28;20029;-81
2022/04/21 11:46:09;;;;;;;3.35;1.63;;;19.60;48.10;;;;;;5077472;28;20082;-79
2022/04/21 11:48:37;;;;;;;2.80;1.90;;;19.70;47.80;;;;;;5076740;28;20396;-81
2022/04/21 11:51:04;;;;;;;3.42;2.03;;;19.70;47.00;;;;;;5059631;28;20057;-78
2022/04/21 11:53:34;;;;;;;3.70;1.80;;;19.80;47.20;;;;;;5039574;28;20022;-81
2022/04/21 11:56:00;;;;;;;5.45;1.85;;;19.80;47.80;;;;;;5056040;28;20052;-81
2022/04/21 11:58:36;;;;;;;2.75;1.77;;;19.80;46.10;;;;;;5084354;28;20024;-83
2022/04/21 12:06:41;;;;;;;2.60;1.75;;;19.90;45.40;;;;;;5075038;28;20074;-81
2022/04/21 12:09:27;;;;;;;5.65;2.30;;;19.90;45.80;;;;;;5086018;28;20099;-81
2022/04/21 12:11:58;;;;;;;3.85;1.90;;;20.00;45.10;;;;;;5094789;28;20043;-77
2022/04/21 12:14:24;;;;;;;4.45;2.03;;;19.90;45.50;;;;;;5094619;28;20025;-82
2022/04/21 12:16:56;;;;;;;5.68;2.17;;;20.00;45.90;;;;;;5095668;28;20027;-82
2022/04/21 12:19:34;;;;;;;4.90;2.40;;;20.00;45.60;;;;;;5094745;28;20054;-82
2022/04/21 12:22:01;;;;;;;4.75;2.50;;;20.10;45.10;;;;;;5094974;28;20035;-83
2022/04/21 12:24:46;;;;;;;4.45;2.20;;;20.10;45.20;;;;;;5093439;28;20077;-83
2022/04/21 12:27:20;;;;;;;4.68;2.28;;;20.20;45.40;;;;;;5074459;28;20062;-83
2022/04/21 12:29:59;;;;;;;2.63;2.25;;;20.30;44.90;;;;;;5088187;28;20029;-83
2022/04/21 12:32:30;;;;;;;3.70;2.05;;;20.30;44.90;;;;;;5093377;28;20037;-83
2022/04/21 12:35:02;;;;;;;5.97;2.30;;;20.40;44.50;;;;;;5078527;28;20021;-83
2022/04/21 12:37:36;;;;;;;2.97;2.20;;;20.40;44.30;;;;;;5088789;28;20056;-83
2022/04/21 12:40:13;;;;;;;4.43;2.72;;;20.50;45.10;;;;;;5088014;28;20020;-83
2022/04/21 12:42:40;;;;;;;3.00;2.22;;;20.70;44.50;;;;;;5087997;28;20096;-83
2022/04/21 12:45:06;;;;;;;3.30;2.40;;;20.60;43.70;;;;;;5094350;28;20021;-83
2022/04/21 12:47:42;;;;;;;3.30;2.35;;;20.60;44.00;;;;;;5078815;28;20017;-83
2022/04/21 12:50:10;;;;;;;6.55;2.60;;;20.50;44.50;;;;;;5092333;28;20005;-83
2022/04/21 12:52:49;;;;;;;7.43;2.95;;;20.50;45.10;;;;;;5094228;28;20067;-82
2022/04/21 12:55:18;;;;;;;3.65;3.08;;;20.60;46.20;;;;;;5081243;28;20021;-82
2022/04/21 12:58:07;;;;;;;5.72;2.50;;;20.70;46.30;;;;;;5085767;28;20023;-82
2022/04/21 13:00:45;;;;;;;4.97;2.58;;;20.80;45.80;;;;;;5087307;28;20013;-83
2022/04/21 13:03:14;;;;;;;4.68;2.60;;;20.90;45.20;;;;;;5079400;28;20013;-82
2022/04/21 13:05:51;;;;;;;4.97;3.13;;;21.00;44.90;;;;;;5088843;28;20063;-84
2022/04/21 13:08:21;;;;;;;4.85;2.85;;;21.10;44.80;;;;;;5091598;28;20029;-80
2022/04/21 13:10:47;;;;;;;6.40;2.70;;;21.00;44.90;;;;;;5095127;28;20031;-82
2022/04/21 13:13:13;;;;;;;3.72;2.40;;;21.00;45.70;;;;;;5098112;28;20040;-82
2022/04/21 13:15:38;;;;;;;3.72;2.90;;;21.10;45.80;;;;;;5097391;28;20032;-81
2022/04/21 13:18:04;;;;;;;6.95;3.22;;;21.10;45.70;;;;;;5096766;28;20088;-81
2022/04/21 13:23:14;;;;;;;5.55;3.00;;;21.10;45.60;;;;;;5090191;28;20622;-81
2022/04/21 13:25:40;;;;;;;5.65;2.95;;;21.00;45.20;;;;;;5081160;28;20025;-77
2022/04/21 13:28:05;;;;;;;4.28;3.10;;;21.00;44.90;;;;;;5056162;28;20067;-80
2022/04/21 13:30:31;;;;;;;7.00;2.92;;;21.10;46.20;;;;;;5072343;28;20105;-83
2022/04/21 13:35:41;;;;;;;4.28;3.15;;;21.10;45.70;;;;;;5074039;28;20032;-81
2022/04/21 13:38:07;;;;;;;7.13;3.55;;;21.10;45.50;;;;;;5049709;28;20021;-78
2022/04/21 13:40:33;;;;;;;5.55;3.63;;;21.10;45.70;;;;;;5067519;28;20029;-81